Time;durP1;ratioP1;P1;durP2;ratioP2;P2;SDS_P1;SDS_P2;PMS_P1;PMS_P2;Temp;Humidity;BMP_temperature;BMP_pressure;BME280_temperature;BME280_humidity;BME280_pressure;Samples;Min_cycle;Max_cycle;Signal;HPM_P1;HPM_P2
2021/03/11 00:02:01;;;;;;;1.20;1.10;;;11.10;99.90;;;;;;4965635;28;20207;-87
2021/03/11 00:04:34;;;;;;;4.07;1.37;;;11.10;99.90;;;;;;4966029;28;20223;-88
2021/03/11 00:07:07;;;;;;;3.07;1.30;;;11.10;99.90;;;;;;4978144;28;20218;-88
2021/03/11 00:09:37;;;;;;;2.37;1.30;;;11.10;99.90;;;;;;4977524;28;20258;-88
2021/03/11 00:12:13;;;;;;;3.17;1.10;;;11.20;99.90;;;;;;4977547;28;20229;-88
2021/03/11 00:14:43;;;;;;;2.27;1.03;;;11.30;99.90;;;;;;4976347;28;20215;-89
2021/03/11 00:17:14;;;;;;;2.67;1.10;;;11.20;99.90;;;;;;4977081;28;20235;-87
2021/03/11 00:19:45;;;;;;;3.13;1.50;;;11.30;99.90;;;;;;4976925;28;20274;-88
2021/03/11 00:22:17;;;;;;;2.53;1.20;;;11.30;99.90;;;;;;4979661;28;20293;-88
2021/03/11 00:24:48;;;;;;;1.37;0.83;;;11.10;99.90;;;;;;4981997;28;20203;-86
2021/03/11 00:27:18;;;;;;;2.70;1.10;;;10.90;99.90;;;;;;4978666;28;20211;-88
2021/03/11 00:29:48;;;;;;;2.80;1.20;;;11.00;99.90;;;;;;4979592;28;20227;-88
2021/03/11 00:32:20;;;;;;;2.97;1.30;;;10.90;99.90;;;;;;4988506;28;20201;-89
2021/03/11 00:34:51;;;;;;;3.37;1.43;;;10.80;99.90;;;;;;4992283;28;20214;-87
2021/03/11 00:37:22;;;;;;;2.13;1.30;;;10.70;99.90;;;;;;4993631;28;20199;-89
2021/03/11 00:39:52;;;;;;;2.83;1.43;;;10.50;99.90;;;;;;4998279;28;20234;-89
2021/03/11 00:42:24;;;;;;;2.50;1.60;;;10.40;99.90;;;;;;4989986;28;20659;-88
2021/03/11 00:44:55;;;;;;;2.90;1.60;;;10.20;99.90;;;;;;4980480;28;20210;-88
2021/03/11 00:47:26;;;;;;;3.17;1.43;;;10.10;99.90;;;;;;4978798;28;20226;-87
2021/03/11 00:49:57;;;;;;;2.53;1.13;;;10.10;99.90;;;;;;4980795;28;20238;-87
2021/03/11 00:52:28;;;;;;;2.17;1.17;;;9.90;99.90;;;;;;4979941;28;20199;-87
2021/03/11 00:54:59;;;;;;;3.53;1.50;;;9.80;99.90;;;;;;4981163;28;20226;-88
2021/03/11 00:57:30;;;;;;;2.90;1.10;;;9.70;99.90;;;;;;4979516;28;20202;-89
2021/03/11 01:00:01;;;;;;;4.30;1.23;;;9.60;99.90;;;;;;4980718;28;20298;-88
2021/03/11 01:02:32;;;;;;;3.47;1.50;;;9.50;99.90;;;;;;4978564;28;20210;-89
2021/03/11 01:05:02;;;;;;;3.53;1.30;;;9.50;99.90;;;;;;4959653;28;20216;-88
2021/03/11 01:07:35;;;;;;;4.03;1.40;;;9.40;99.90;;;;;;4966350;28;21284;-86
2021/03/11 01:10:12;;;;;;;3.13;1.10;;;9.30;99.90;;;;;;4978855;28;20242;-88
2021/03/11 01:12:42;;;;;;;3.20;1.33;;;9.20;99.90;;;;;;4979773;28;20207;-88
2021/03/11 01:15:15;;;;;;;3.70;1.63;;;9.20;99.90;;;;;;4979541;28;20239;-88
2021/03/11 01:17:49;;;;;;;1.57;1.10;;;9.10;99.90;;;;;;4979561;28;20211;-89
2021/03/11 01:20:22;;;;;;;2.03;1.07;;;9.10;99.90;;;;;;4979427;28;20204;-89
2021/03/11 01:23:00;;;;;;;2.53;1.33;;;8.90;99.90;;;;;;4979200;28;20281;-88
2021/03/11 01:25:31;;;;;;;1.80;1.30;;;8.90;99.90;;;;;;4978836;28;20316;-88
2021/03/11 01:28:01;;;;;;;1.83;1.00;;;8.80;99.90;;;;;;4977847;28;20221;-87
2021/03/11 01:30:35;;;;;;;3.90;1.63;;;8.70;99.90;;;;;;4979491;28;20222;-87
2021/03/11 01:33:07;;;;;;;3.17;1.50;;;8.70;99.90;;;;;;4980057;28;20687;-88
2021/03/11 01:35:38;;;;;;;2.47;1.50;;;8.60;99.90;;;;;;4999440;28;20226;-88
2021/03/11 01:38:16;;;;;;;2.83;1.50;;;8.60;99.90;;;;;;4988696;28;20267;-88
2021/03/11 01:40:59;;;;;;;3.87;1.30;;;8.50;99.90;;;;;;4994545;28;20207;-88
2021/03/11 01:43:42;;;;;;;4.63;1.37;;;8.40;99.90;;;;;;4990889;28;20233;-86
2021/03/11 01:46:25;;;;;;;1.73;1.20;;;8.30;99.90;;;;;;4994635;28;20194;-88
2021/03/11 01:48:56;;;;;;;4.03;1.20;;;8.20;99.90;;;;;;4976984;28;20230;-88
2021/03/11 01:51:29;;;;;;;2.27;1.50;;;8.10;99.90;;;;;;4984544;28;20234;-96
2021/03/11 01:54:02;;;;;;;3.37;1.40;;;8.00;99.90;;;;;;4982599;28;20621;-92
2021/03/11 01:56:33;;;;;;;1.73;1.00;;;8.00;99.90;;;;;;4985157;28;21055;-92
2021/03/11 01:59:04;;;;;;;3.77;1.47;;;7.90;99.90;;;;;;4990139;28;20239;-93
2021/03/11 02:01:36;;;;;;;1.87;1.30;;;7.90;99.90;;;;;;4991608;28;20210;-94
2021/03/11 02:04:07;;;;;;;1.77;1.20;;;7.90;99.90;;;;;;4990372;28;20207;-93
2021/03/11 02:06:39;;;;;;;2.07;1.40;;;7.80;99.90;;;;;;4988475;28;20242;-94
2021/03/11 02:09:12;;;;;;;3.57;1.43;;;7.80;99.90;;;;;;4990417;28;20663;-94
2021/03/11 02:11:51;;;;;;;1.70;1.23;;;7.70;99.90;;;;;;4989271;28;20270;-94
2021/03/11 02:14:31;;;;;;;2.23;1.30;;;7.60;99.90;;;;;;4991082;28;20212;-94
2021/03/11 02:17:04;;;;;;;3.13;1.10;;;7.60;99.90;;;;;;4990296;28;20291;-92
2021/03/11 02:20:03;;;;;;;3.93;1.53;;;7.50;99.90;;;;;;4991368;28;20206;-91
2021/03/11 02:22:47;;;;;;;2.63;1.20;;;7.40;99.90;;;;;;4989864;28;20663;-93
2021/03/11 02:25:25;;;;;;;2.77;1.50;;;7.30;99.90;;;;;;4991654;28;20214;-91
2021/03/11 02:28:06;;;;;;;4.30;2.00;;;7.20;99.90;;;;;;4997098;28;20207;-92
2021/03/11 02:30:39;;;;;;;4.17;1.93;;;7.20;99.90;;;;;;4998631;28;20234;-92
2021/03/11 02:33:11;;;;;;;3.47;1.40;;;7.10;99.90;;;;;;4998649;28;20195;-94
2021/03/11 02:35:44;;;;;;;4.63;1.80;;;7.00;99.90;;;;;;4997934;28;20225;-93
2021/03/11 02:38:16;;;;;;;4.07;1.83;;;7.00;99.90;;;;;;4997399;28;20226;-93
2021/03/11 02:40:51;;;;;;;4.47;1.90;;;6.90;99.90;;;;;;4997649;28;20217;-93
2021/03/11 02:43:26;;;;;;;4.97;2.10;;;6.80;99.90;;;;;;4988979;28;20309;-93
2021/03/11 02:45:59;;;;;;;5.70;1.87;;;6.80;99.90;;;;;;4982579;28;20214;-94
2021/03/11 02:48:33;;;;;;;2.00;1.50;;;6.70;99.90;;;;;;4998627;28;20253;-92
2021/03/11 02:51:05;;;;;;;3.13;1.53;;;6.70;99.90;;;;;;5003269;28;20251;-92
2021/03/11 02:53:37;;;;;;;4.63;1.70;;;6.60;99.90;;;;;;4997854;28;20227;-91
2021/03/11 02:56:09;;;;;;;4.23;2.13;;;6.60;99.90;;;;;;4991467;28;20215;-92
2021/03/11 02:58:42;;;;;;;3.83;1.70;;;6.50;99.90;;;;;;4981893;28;20208;-90
2021/03/11 03:01:20;;;;;;;2.80;1.53;;;6.50;99.90;;;;;;4984589;28;20212;-89
2021/03/11 03:03:52;;;;;;;3.10;2.17;;;6.50;99.90;;;;;;4978670;28;20213;-86
2021/03/11 03:06:23;;;;;;;5.13;1.93;;;6.40;99.90;;;;;;4977529;28;20206;-87
2021/03/11 03:08:55;;;;;;;2.37;1.60;;;6.30;99.90;;;;;;4976407;28;20263;-87
2021/03/11 03:11:27;;;;;;;3.53;2.10;;;6.30;99.90;;;;;;4968187;28;20231;-88
2021/03/11 03:13:57;;;;;;;2.50;1.50;;;6.20;99.90;;;;;;4978827;28;20262;-89
2021/03/11 03:16:30;;;;;;;1.80;1.43;;;6.20;99.90;;;;;;4976447;28;20268;-87
2021/03/11 03:19:02;;;;;;;3.03;1.60;;;6.10;99.90;;;;;;4977243;28;20678;-88
2021/03/11 03:21:35;;;;;;;7.83;1.87;;;6.10;99.90;;;;;;4960080;28;20241;-88
2021/03/11 03:24:07;;;;;;;3.43;1.60;;;6.00;99.90;;;;;;4962982;28;20262;-87
2021/03/11 03:26:37;;;;;;;3.10;1.57;;;6.10;99.90;;;;;;4976315;28;20653;-88
2021/03/11 03:29:09;;;;;;;5.67;2.20;;;6.10;99.90;;;;;;4970182;28;20293;-87
2021/03/11 03:31:42;;;;;;;6.00;1.83;;;6.00;99.90;;;;;;4970567;28;20208;-87
2021/03/11 03:34:14;;;;;;;4.63;2.03;;;6.00;99.90;;;;;;4969678;28;20222;-87
2021/03/11 03:36:45;;;;;;;5.87;1.70;;;6.00;99.90;;;;;;4975501;28;20215;-87
2021/03/11 03:39:15;;;;;;;3.93;1.50;;;5.90;99.90;;;;;;4977342;28;20203;-87
2021/03/11 03:41:50;;;;;;;3.73;1.50;;;5.90;99.90;;;;;;4992868;28;20207;-87
2021/03/11 03:44:25;;;;;;;2.63;1.40;;;5.80;99.90;;;;;;4976972;28;20211;-86
2021/03/11 03:46:58;;;;;;;5.87;1.70;;;5.80;99.90;;;;;;4977318;28;20206;-86
2021/03/11 03:49:30;;;;;;;3.63;1.90;;;5.70;99.90;;;;;;4971093;28;20227;-87
2021/03/11 03:52:03;;;;;;;5.40;1.70;;;5.80;99.90;;;;;;5356645;22;20573;-87
2021/03/11 03:54:36;;;;;;;2.33;1.40;;;5.70;99.90;;;;;;4996172;28;20256;-87
2021/03/11 03:57:12;;;;;;;3.53;1.83;;;5.70;99.90;;;;;;4995012;28;20720;-87
2021/03/11 03:59:45;;;;;;;4.83;1.70;;;5.70;99.90;;;;;;4995532;28;20213;-87
2021/03/11 04:02:47;;;;;;;3.00;1.27;;;5.60;99.90;;;;;;4996258;28;20213;-86
2021/03/11 04:05:20;;;;;;;4.33;1.50;;;5.60;99.90;;;;;;4987644;28;20209;-87
2021/03/11 04:07:55;;;;;;;3.83;1.30;;;5.60;99.90;;;;;;4993685;28;20288;-88
2021/03/11 04:10:27;;;;;;;4.57;1.30;;;5.50;99.90;;;;;;4980784;28;20313;-88
2021/03/11 04:12:58;;;;;;;4.87;1.50;;;5.50;99.90;;;;;;4979197;28;20273;-88
2021/03/11 04:15:29;;;;;;;4.77;1.60;;;5.50;99.90;;;;;;4996120;28;20234;-88
2021/03/11 04:18:02;;;;;;;6.10;1.73;;;5.40;99.90;;;;;;4991142;28;20263;-89
2021/03/11 04:20:34;;;;;;;5.50;1.80;;;5.40;99.90;;;;;;4993832;28;20206;-88
2021/03/11 04:23:08;;;;;;;6.37;2.10;;;5.30;99.90;;;;;;4983847;28;20210;-86
2021/03/11 04:25:39;;;;;;;4.20;1.50;;;5.30;99.90;;;;;;5002490;28;20245;-88
2021/03/11 04:28:11;;;;;;;3.13;1.20;;;5.30;99.90;;;;;;4990692;28;20205;-88
2021/03/11 04:30:45;;;;;;;4.67;2.20;;;5.30;99.90;;;;;;4996326;28;20231;-88
2021/03/11 04:33:18;;;;;;;7.23;2.00;;;5.30;99.90;;;;;;5000996;28;20209;-87
2021/03/11 04:35:50;;;;;;;7.63;1.77;;;5.30;99.90;;;;;;4995490;28;20209;-87
2021/03/11 04:38:21;;;;;;;5.83;1.67;;;5.20;99.90;;;;;;4996677;28;20209;-87
2021/03/11 04:40:52;;;;;;;7.50;1.93;;;5.20;99.90;;;;;;4995502;28;20642;-87
2021/03/11 04:43:24;;;;;;;6.53;1.67;;;5.10;99.90;;;;;;5010002;28;20244;-88
2021/03/11 04:46:01;;;;;;;9.70;2.30;;;5.10;99.90;;;;;;5002214;28;20237;-85
2021/03/11 04:48:38;;;;;;;4.90;1.50;;;5.10;99.90;;;;;;4995028;28;20283;-87
2021/03/11 04:51:12;;;;;;;4.70;1.80;;;5.10;99.90;;;;;;4995402;28;20640;-87
2021/03/11 04:53:45;;;;;;;2.87;2.00;;;5.10;99.90;;;;;;4647149;28;10000113;-87
2021/03/11 04:56:17;;;;;;;4.90;2.03;;;5.00;99.90;;;;;;5004696;28;20213;-88
2021/03/11 05:01:25;;;;;;;15.20;6.57;;;5.00;99.90;;;;;;5030854;22;20230;-89
2021/03/11 05:04:03;;;;;;;13.47;4.97;;;5.00;99.90;;;;;;5000422;28;20632;-90
2021/03/11 05:06:37;;;;;;;7.47;2.90;;;4.90;99.90;;;;;;4999412;28;20209;-87
2021/03/11 05:09:08;;;;;;;3.83;2.07;;;4.90;99.90;;;;;;5012801;28;20215;-90
2021/03/11 05:11:39;;;;;;;6.83;3.00;;;4.80;99.90;;;;;;5006532;28;20211;-90
2021/03/11 05:14:11;;;;;;;5.37;2.20;;;4.80;99.90;;;;;;5001233;28;20201;-90
2021/03/11 05:16:45;;;;;;;4.63;1.70;;;4.70;99.90;;;;;;5000536;28;20214;-89
2021/03/11 05:19:21;;;;;;;3.00;1.47;;;4.60;99.90;;;;;;4999889;28;20218;-90
2021/03/11 05:21:53;;;;;;;3.20;1.87;;;4.50;99.90;;;;;;4997828;28;20210;-88
2021/03/11 05:24:50;;;;;;;5.77;2.10;;;4.50;99.90;;;;;;5007340;28;20202;-91
2021/03/11 05:27:24;;;;;;;2.87;1.50;;;4.40;99.90;;;;;;5004068;28;20198;-88
2021/03/11 05:29:56;;;;;;;3.03;1.67;;;4.40;99.90;;;;;;5002094;28;20595;-87
2021/03/11 05:32:27;;;;;;;5.53;2.40;;;4.30;99.90;;;;;;5000998;28;21363;-88
2021/03/11 05:35:02;;;;;;;4.13;1.77;;;4.20;99.90;;;;;;4998106;28;20670;-88
2021/03/11 05:37:33;;;;;;;3.20;1.50;;;4.20;99.90;;;;;;4997229;28;20230;-88
2021/03/11 05:40:10;;;;;;;8.53;1.77;;;4.20;99.90;;;;;;4998588;28;20214;-86
2021/03/11 05:42:47;;;;;;;4.57;2.17;;;4.20;99.90;;;;;;4998481;28;20317;-88
2021/03/11 05:45:17;;;;;;;3.90;1.70;;;4.10;99.90;;;;;;4998970;28;20254;-89
2021/03/11 05:50:53;;;;;;;5.03;1.97;;;4.10;99.90;;;;;;4999228;28;20228;-87
2021/03/11 05:53:25;;;;;;;3.27;1.77;;;4.00;99.90;;;;;;4997582;28;20265;-88
2021/03/11 05:55:56;;;;;;;4.73;1.80;;;3.90;99.90;;;;;;4998635;28;20217;-87
2021/03/11 05:58:27;;;;;;;3.43;1.80;;;3.90;99.90;;;;;;4997511;28;20713;-88
2021/03/11 06:01:02;;;;;;;3.73;1.93;;;3.90;99.90;;;;;;4998878;28;20221;-88
2021/03/11 06:03:34;;;;;;;5.43;2.20;;;3.90;99.90;;;;;;4980515;28;20680;-87
2021/03/11 06:06:06;;;;;;;4.13;1.80;;;3.90;99.90;;;;;;4998843;28;20203;-88
2021/03/11 06:08:39;;;;;;;7.20;2.60;;;3.80;99.90;;;;;;4986435;28;20249;-88
2021/03/11 06:11:09;;;;;;;4.40;1.80;;;3.80;99.90;;;;;;4977875;28;20211;-88
2021/03/11 06:13:45;;;;;;;7.27;2.17;;;3.80;99.90;;;;;;4992897;28;20222;-88
2021/03/11 06:16:22;;;;;;;4.17;1.67;;;3.80;99.90;;;;;;5017351;28;20295;-89
2021/03/11 06:18:56;;;;;;;4.13;1.70;;;3.80;99.90;;;;;;4980043;28;20202;-88
2021/03/11 06:21:29;;;;;;;6.03;2.10;;;3.70;99.90;;;;;;4964681;28;20187;-89
2021/03/11 06:24:00;;;;;;;4.47;2.23;;;3.80;99.90;;;;;;4981357;28;20215;-88
2021/03/11 06:26:31;;;;;;;5.53;2.20;;;3.70;99.90;;;;;;4987355;28;20211;-88
2021/03/11 06:29:02;;;;;;;6.43;2.07;;;3.70;99.90;;;;;;4986165;28;20291;-87
2021/03/11 06:31:36;;;;;;;5.20;1.90;;;3.60;99.90;;;;;;4983663;28;20230;-88
2021/03/11 06:34:21;;;;;;;5.07;2.10;;;3.60;99.90;;;;;;4980413;28;20211;-87
2021/03/11 06:36:53;;;;;;;3.57;1.73;;;3.60;99.90;;;;;;4993475;28;20211;-88
2021/03/11 06:39:28;;;;;;;3.83;2.07;;;3.60;99.90;;;;;;4983862;28;20310;-89
2021/03/11 06:41:59;;;;;;;4.90;2.10;;;3.50;99.90;;;;;;4985505;28;20269;-88
2021/03/11 06:44:37;;;;;;;5.10;1.90;;;3.40;99.90;;;;;;4996207;28;20325;-88
2021/03/11 06:47:09;;;;;;;4.00;1.80;;;3.40;99.90;;;;;;4983785;28;20207;-88
2021/03/11 06:49:58;;;;;;;5.73;1.90;;;3.30;99.90;;;;;;4979957;28;20262;-88
2021/03/11 06:52:30;;;;;;;4.90;2.10;;;3.30;99.90;;;;;;4981391;28;20207;-88
2021/03/11 06:55:04;;;;;;;5.40;2.20;;;3.30;99.90;;;;;;4998723;28;20214;-88
2021/03/11 06:57:35;;;;;;;3.53;1.60;;;3.30;99.90;;;;;;4997009;28;20198;-89
2021/03/11 07:00:17;;;;;;;5.67;2.40;;;3.20;99.90;;;;;;4999512;28;20227;-89
2021/03/11 07:02:55;;;;;;;7.93;2.37;;;3.20;99.90;;;;;;4998594;28;20206;-89
2021/03/11 07:05:27;;;;;;;8.43;2.10;;;3.20;99.90;;;;;;5000466;28;20217;-89
2021/03/11 07:08:07;;;;;;;6.80;2.20;;;3.20;99.90;;;;;;4998330;28;20662;-88
2021/03/11 07:10:39;;;;;;;3.20;2.07;;;3.20;99.90;;;;;;4997763;28;20253;-88
2021/03/11 07:13:11;;;;;;;5.20;2.43;;;3.20;99.90;;;;;;4997729;28;20615;-89
2021/03/11 07:15:42;;;;;;;3.43;2.00;;;3.20;99.90;;;;;;4996723;28;20218;-88
2021/03/11 07:18:25;;;;;;;3.20;1.73;;;3.10;99.90;;;;;;5000127;28;20213;-89
2021/03/11 07:20:56;;;;;;;3.20;1.60;;;3.10;99.90;;;;;;4998834;28;20214;-89
2021/03/11 07:23:28;;;;;;;6.47;1.97;;;3.10;99.90;;;;;;5016067;28;20186;-88
2021/03/11 07:25:59;;;;;;;2.90;2.10;;;3.10;99.90;;;;;;5015932;28;20198;-89
2021/03/11 07:28:46;;;;;;;4.07;1.97;;;3.10;99.90;;;;;;5009339;28;20210;-89
2021/03/11 07:31:29;;;;;;;3.53;1.97;;;3.10;99.90;;;;;;4998691;28;20241;-88
2021/03/11 07:34:00;;;;;;;2.10;1.77;;;3.10;99.90;;;;;;4995184;28;20209;-88
2021/03/11 07:36:30;;;;;;;6.87;1.97;;;3.10;99.90;;;;;;4996265;28;20261;-88
2021/03/11 07:39:05;;;;;;;4.37;1.90;;;3.10;99.90;;;;;;4998268;28;20198;-88
2021/03/11 07:41:36;;;;;;;6.20;2.57;;;3.00;99.90;;;;;;4996022;28;20202;-88
2021/03/11 07:44:10;;;;;;;4.13;1.77;;;3.00;99.90;;;;;;4996481;28;20207;-88
2021/03/11 07:46:41;;;;;;;3.57;1.70;;;3.00;99.90;;;;;;4995419;28;20206;-88
2021/03/11 07:49:13;;;;;;;4.20;2.40;;;3.00;99.90;;;;;;5001557;28;20210;-88
2021/03/11 07:51:45;;;;;;;2.50;1.80;;;3.00;99.90;;;;;;5000252;28;20240;-88
2021/03/11 07:54:20;;;;;;;3.20;2.10;;;2.90;99.90;;;;;;5001964;28;20453;-89
2021/03/11 07:56:51;;;;;;;7.40;2.33;;;2.90;99.90;;;;;;4999889;28;20568;-89
2021/03/11 07:59:22;;;;;;;5.33;2.43;;;2.90;99.90;;;;;;4997045;28;20305;-87
2021/03/11 08:01:57;;;;;;;4.03;2.10;;;2.90;99.90;;;;;;4997209;28;20206;-89
2021/03/11 08:04:30;;;;;;;4.17;2.00;;;2.90;99.90;;;;;;4995436;28;20716;-89
2021/03/11 08:07:22;;;;;;;5.90;2.20;;;2.90;99.90;;;;;;4998468;28;20210;-89
2021/03/11 08:09:55;;;;;;;3.23;2.17;;;2.80;99.90;;;;;;5023189;28;20268;-89
2021/03/11 08:12:31;;;;;;;6.57;2.20;;;2.80;99.90;;;;;;5033069;28;20428;-89
2021/03/11 08:15:04;;;;;;;4.50;2.20;;;2.80;99.90;;;;;;5031519;28;20284;-89
2021/03/11 08:17:45;;;;;;;3.33;2.23;;;2.80;99.90;;;;;;5033177;28;20229;-89
2021/03/11 08:20:38;;;;;;;3.03;2.07;;;2.80;99.90;;;;;;5035472;28;20201;-90
2021/03/11 08:23:12;;;;;;;3.73;2.20;;;2.80;99.90;;;;;;5026284;28;20285;-90
2021/03/11 08:25:46;;;;;;;3.43;2.33;;;2.80;99.90;;;;;;5009030;28;20232;-89
2021/03/11 08:28:40;;;;;;;3.00;2.07;;;2.70;99.90;;;;;;5023300;28;20213;-88
2021/03/11 08:31:12;;;;;;;5.73;2.67;;;2.70;99.90;;;;;;5025780;28;20244;-89
2021/03/11 08:33:53;;;;;;;5.13;2.30;;;2.70;99.90;;;;;;5023100;28;20213;-89
2021/03/11 08:36:41;;;;;;;3.73;2.37;;;2.70;99.90;;;;;;5020841;28;20286;-89
2021/03/11 08:39:37;;;;;;;5.33;2.40;;;2.70;99.90;;;;;;5020674;28;20244;-89
2021/03/11 08:42:45;;;;;;;4.20;2.50;;;2.60;99.90;;;;;;5021628;28;20213;-89
2021/03/11 08:46:01;;;;;;;7.43;2.20;;;2.60;99.90;;;;;;5017919;28;20210;-89
2021/03/11 08:48:46;;;;;;;4.80;2.20;;;2.60;99.90;;;;;;5019835;28;20209;-89
2021/03/11 08:51:39;;;;;;;4.43;2.40;;;2.60;99.90;;;;;;5003885;28;20227;-89
2021/03/11 08:54:23;;;;;;;6.23;3.00;;;2.60;99.90;;;;;;4994881;28;20242;-89
2021/03/11 08:56:54;;;;;;;3.90;2.50;;;2.60;99.90;;;;;;4996963;28;20206;-89
2021/03/11 08:59:47;;;;;;;5.97;2.97;;;2.60;99.90;;;;;;5000064;28;20242;-89
2021/03/11 09:02:33;;;;;;;5.33;2.80;;;2.50;99.90;;;;;;4994259;28;20281;-89
2021/03/11 09:05:08;;;;;;;5.97;2.50;;;2.50;99.90;;;;;;5000347;28;20226;-89
2021/03/11 09:07:39;;;;;;;4.20;2.40;;;2.50;99.90;;;;;;5000226;28;20365;-89
2021/03/11 09:10:19;;;;;;;4.77;2.53;;;2.50;99.90;;;;;;5001273;28;20230;-90
2021/03/11 09:12:50;;;;;;;4.77;2.90;;;2.50;99.90;;;;;;5004016;28;20214;-90
2021/03/11 09:15:21;;;;;;;3.20;2.50;;;2.50;99.90;;;;;;5002352;28;20732;-90
2021/03/11 09:17:52;;;;;;;3.93;2.50;;;2.50;99.90;;;;;;5007509;28;20209;-90
2021/03/11 09:20:26;;;;;;;4.40;2.60;;;2.50;99.90;;;;;;5004546;28;20205;-91
2021/03/11 09:22:58;;;;;;;4.60;2.80;;;2.50;99.90;;;;;;5003487;28;20268;-90
2021/03/11 09:25:29;;;;;;;5.17;2.70;;;2.60;99.90;;;;;;4999527;28;20210;-90
2021/03/11 09:28:01;;;;;;;6.33;2.97;;;2.60;99.90;;;;;;5001037;28;20203;-88
2021/03/11 09:30:35;;;;;;;5.43;2.73;;;2.50;99.90;;;;;;5000436;28;20247;-90
2021/03/11 09:33:11;;;;;;;4.27;2.43;;;2.60;99.90;;;;;;5002943;28;20214;-89
2021/03/11 09:35:44;;;;;;;5.03;2.77;;;2.50;99.90;;;;;;5017070;28;20205;-89
2021/03/11 09:38:20;;;;;;;7.77;3.10;;;2.50;99.90;;;;;;5015330;28;20206;-89
2021/03/11 09:40:53;;;;;;;7.10;2.50;;;2.50;99.90;;;;;;5005339;28;20206;-89
2021/03/11 09:43:28;;;;;;;5.53;2.83;;;2.50;99.90;;;;;;4999808;28;20214;-89
2021/03/11 09:46:01;;;;;;;3.30;2.70;;;2.50;99.90;;;;;;4998138;28;20320;-88
2021/03/11 09:48:34;;;;;;;5.60;2.43;;;2.50;99.90;;;;;;4990706;28;20210;-89
2021/03/11 09:51:10;;;;;;;4.97;2.57;;;2.50;99.90;;;;;;4978478;28;20230;-89
2021/03/11 09:53:44;;;;;;;5.40;2.43;;;2.50;99.90;;;;;;4978658;28;20206;-89
2021/03/11 09:56:18;;;;;;;7.30;2.43;;;2.50;99.90;;;;;;4978939;28;20281;-92
2021/03/11 09:58:51;;;;;;;6.73;2.80;;;2.40;99.90;;;;;;4979004;28;20206;-89
2021/03/11 10:01:27;;;;;;;4.20;2.63;;;2.40;99.90;;;;;;4978402;28;20222;-88
2021/03/11 10:03:58;;;;;;;5.40;2.77;;;2.40;99.90;;;;;;4978266;28;20203;-88
2021/03/11 10:06:31;;;;;;;5.03;2.97;;;2.40;99.90;;;;;;4978197;28;20258;-89
2021/03/11 10:09:03;;;;;;;4.57;2.50;;;2.30;99.90;;;;;;4978403;28;20743;-89
2021/03/11 10:11:44;;;;;;;3.20;2.30;;;2.30;99.90;;;;;;4978652;28;20230;-89
2021/03/11 10:14:18;;;;;;;6.77;3.10;;;2.30;99.90;;;;;;4978797;28;20233;-89
2021/03/11 10:16:53;;;;;;;7.30;2.90;;;2.20;99.90;;;;;;4979272;28;20209;-89
2021/03/11 10:19:27;;;;;;;6.23;3.17;;;2.20;99.90;;;;;;4978756;28;20636;-89
2021/03/11 10:22:03;;;;;;;5.53;3.03;;;2.20;99.90;;;;;;4980153;28;20226;-90
2021/03/11 10:24:41;;;;;;;5.43;2.90;;;2.20;99.90;;;;;;4981713;28;20218;-89
2021/03/11 10:27:25;;;;;;;4.53;2.87;;;2.20;99.90;;;;;;4982103;28;20289;-89
2021/03/11 10:30:07;;;;;;;5.37;3.10;;;2.20;99.90;;;;;;4984952;28;20231;-89
2021/03/11 10:32:39;;;;;;;7.63;3.17;;;2.20;99.90;;;;;;4981773;28;20237;-88
2021/03/11 10:35:12;;;;;;;5.53;2.97;;;2.20;99.90;;;;;;4984953;28;20270;-90
2021/03/11 10:37:45;;;;;;;4.30;3.00;;;2.20;99.90;;;;;;4986666;28;20211;-89
2021/03/11 10:40:22;;;;;;;4.67;2.70;;;2.20;99.90;;;;;;4986973;28;20207;-87
2021/03/11 10:42:54;;;;;;;5.13;2.73;;;2.10;99.90;;;;;;4981228;28;20203;-89
2021/03/11 10:45:27;;;;;;;6.57;2.83;;;2.10;99.90;;;;;;4992207;28;20217;-88
2021/03/11 10:48:02;;;;;;;4.40;3.20;;;2.10;99.90;;;;;;5023243;28;20206;-88
2021/03/11 10:50:40;;;;;;;5.13;3.43;;;2.10;99.90;;;;;;5021732;28;20300;-89
2021/03/11 10:53:13;;;;;;;5.60;3.47;;;2.10;99.90;;;;;;5013613;28;20613;-90
2021/03/11 10:55:44;;;;;;;5.73;3.60;;;2.00;99.90;;;;;;4998275;28;20277;-89
2021/03/11 10:58:24;;;;;;;5.87;3.23;;;2.00;99.90;;;;;;4996917;28;20241;-90
2021/03/11 11:01:08;;;;;;;5.67;3.30;;;2.00;99.90;;;;;;4997107;28;20217;-90
2021/03/11 11:03:43;;;;;;;5.80;3.13;;;2.00;99.90;;;;;;4996598;28;20572;-89
2021/03/11 11:06:14;;;;;;;5.77;3.40;;;2.00;99.90;;;;;;4996359;28;20211;-88
2021/03/11 11:08:47;;;;;;;5.33;3.43;;;1.90;99.90;;;;;;4996544;28;20205;-90
2021/03/11 11:11:19;;;;;;;7.77;3.37;;;1.90;99.90;;;;;;4997390;28;20240;-91
2021/03/11 11:13:51;;;;;;;6.40;3.33;;;1.90;99.90;;;;;;4997756;28;20242;-90
2021/03/11 11:16:23;;;;;;;4.53;3.30;;;1.90;99.90;;;;;;4997596;28;20233;-90
2021/03/11 11:18:54;;;;;;;5.73;3.43;;;1.90;99.90;;;;;;5013309;28;20197;-90
2021/03/11 11:21:28;;;;;;;5.60;3.37;;;1.90;99.90;;;;;;5016577;28;20246;-90
2021/03/11 11:24:00;;;;;;;4.97;3.43;;;1.90;99.90;;;;;;5017146;28;20216;-90
2021/03/11 11:26:32;;;;;;;7.20;3.80;;;1.90;99.90;;;;;;5016455;28;20266;-90
2021/03/11 11:29:05;;;;;;;5.67;4.00;;;1.90;99.90;;;;;;5016950;28;20236;-90
2021/03/11 11:31:39;;;;;;;5.00;3.80;;;1.90;99.90;;;;;;5016470;28;20259;-90
2021/03/11 11:34:10;;;;;;;5.93;4.60;;;1.90;99.90;;;;;;5017619;28;20573;-91
2021/03/11 11:36:41;;;;;;;5.73;4.20;;;1.90;99.90;;;;;;5016900;28;20312;-91
2021/03/11 11:39:14;;;;;;;7.73;4.07;;;1.90;99.90;;;;;;5017769;28;20272;-90
2021/03/11 11:41:45;;;;;;;5.67;4.10;;;1.90;99.90;;;;;;5016285;28;20210;-90
2021/03/11 11:44:18;;;;;;;7.03;4.30;;;1.90;99.90;;;;;;5016423;28;20210;-89
2021/03/11 11:46:48;;;;;;;7.47;4.50;;;1.80;99.90;;;;;;5015503;28;20225;-89
2021/03/11 11:49:19;;;;;;;7.40;4.67;;;1.80;99.90;;;;;;5025067;28;20292;-90
2021/03/11 11:51:50;;;;;;;7.10;4.67;;;1.80;99.90;;;;;;5019208;28;20315;-89
2021/03/11 11:54:23;;;;;;;7.80;4.83;;;1.90;99.90;;;;;;5024789;28;20193;-89
2021/03/11 11:56:53;;;;;;;7.37;4.47;;;1.90;99.90;;;;;;5019648;28;20613;-90
2021/03/11 11:59:23;;;;;;;5.57;4.10;;;1.90;99.90;;;;;;5017706;28;20724;-90
2021/03/11 12:01:57;;;;;;;5.37;3.73;;;1.90;99.90;;;;;;5017632;28;20272;-90
2021/03/11 12:04:28;;;;;;;7.63;4.30;;;2.00;99.90;;;;;;5018348;28;20206;-90
2021/03/11 12:06:59;;;;;;;5.47;4.40;;;2.00;99.90;;;;;;5017827;28;20212;-90
2021/03/11 12:09:32;;;;;;;5.50;3.87;;;2.00;99.90;;;;;;5017369;28;20209;-90
2021/03/11 12:12:05;;;;;;;4.10;3.70;;;2.00;99.90;;;;;;5019571;28;20220;-91
2021/03/11 12:14:36;;;;;;;7.30;3.97;;;1.90;99.90;;;;;;5017195;28;20255;-90
2021/03/11 12:17:08;;;;;;;4.33;3.77;;;1.90;99.90;;;;;;5018797;28;20210;-90
2021/03/11 12:19:39;;;;;;;6.33;3.80;;;1.90;99.90;;;;;;5017591;28;20704;-91
2021/03/11 12:22:13;;;;;;;6.57;3.87;;;1.80;99.90;;;;;;5017863;28;20206;-91
2021/03/11 12:24:45;;;;;;;7.50;4.33;;;1.80;99.90;;;;;;5020086;28;20553;-90
2021/03/11 12:27:19;;;;;;;8.07;4.13;;;1.70;99.90;;;;;;5020284;28;20205;-91
2021/03/11 12:29:51;;;;;;;6.50;4.23;;;1.70;99.90;;;;;;5019934;28;20236;-90
2021/03/11 12:32:37;;;;;;;6.40;4.73;;;1.70;99.90;;;;;;5022354;28;20266;-89
2021/03/11 12:35:09;;;;;;;6.47;4.50;;;1.60;99.90;;;;;;5027531;28;20219;-90
2021/03/11 12:37:39;;;;;;;6.53;4.17;;;1.60;99.90;;;;;;5009311;28;20214;-89
2021/03/11 12:40:14;;;;;;;6.50;4.70;;;1.50;99.90;;;;;;5005952;28;20210;-89
2021/03/11 12:42:47;;;;;;;6.30;4.77;;;1.50;99.90;;;;;;5019938;28;20200;-91
2021/03/11 12:45:18;;;;;;;6.60;4.73;;;1.50;99.90;;;;;;5024762;28;20193;-90
2021/03/11 12:47:50;;;;;;;7.80;5.47;;;1.40;99.90;;;;;;5021775;28;20233;-90
2021/03/11 12:50:21;;;;;;;7.40;4.70;;;1.40;99.90;;;;;;5020085;28;20696;-91
2021/03/11 12:52:51;;;;;;;5.80;4.60;;;1.40;99.90;;;;;;5021868;28;20264;-90
2021/03/11 12:55:24;;;;;;;7.47;5.10;;;1.40;99.90;;;;;;5021843;28;20254;-89
2021/03/11 12:57:54;;;;;;;8.30;5.30;;;1.40;99.90;;;;;;5020831;28;20629;-89
2021/03/11 13:00:25;;;;;;;9.67;5.07;;;1.50;99.90;;;;;;5020395;28;20653;-90
2021/03/11 13:03:07;;;;;;;7.10;4.87;;;1.40;99.90;;;;;;5018761;28;20224;-90
2021/03/11 13:05:37;;;;;;;7.63;4.80;;;1.40;99.90;;;;;;5018836;28;20206;-90
2021/03/11 13:08:07;;;;;;;8.50;4.93;;;1.40;99.90;;;;;;5017889;28;20209;-90
2021/03/11 13:10:40;;;;;;;7.27;4.97;;;1.30;99.90;;;;;;5018578;28;20237;-90
2021/03/11 13:13:12;;;;;;;7.70;5.17;;;1.30;99.90;;;;;;5018375;28;20236;-91
2021/03/11 13:15:43;;;;;;;6.03;4.10;;;1.30;99.90;;;;;;5018713;28;20216;-90
2021/03/11 13:18:14;;;;;;;7.03;4.53;;;1.30;99.90;;;;;;5017215;28;20206;-90
2021/03/11 13:20:44;;;;;;;6.80;4.40;;;1.30;99.90;;;;;;5019053;28;20237;-90
2021/03/11 13:23:16;;;;;;;5.30;4.37;;;1.30;99.90;;;;;;5025782;28;20210;-90
2021/03/11 13:25:50;;;;;;;6.50;4.47;;;1.20;99.90;;;;;;5022086;28;20198;-89
2021/03/11 13:28:21;;;;;;;7.20;5.07;;;1.10;99.90;;;;;;5023051;28;20210;-90
2021/03/11 13:30:52;;;;;;;9.83;5.60;;;1.10;99.90;;;;;;5018213;28;20230;-90
2021/03/11 13:33:27;;;;;;;7.73;4.93;;;1.00;99.90;;;;;;5017302;28;20296;-90
2021/03/11 13:35:59;;;;;;;8.47;5.43;;;1.00;99.90;;;;;;5014513;28;20214;-89
2021/03/11 13:38:30;;;;;;;9.03;5.53;;;1.00;99.90;;;;;;4997376;28;20268;-89